Estación de San Diego

Ultimos registro cada 15 minutos 75
Estación Fecha / Hora Temperatura Humedad Lluvia Velocidad Dirección Radiación Presion
75 San Diego 04-05-2026 18:45 16,6 77 0 0 19 0 1012,4
74 San Diego 04-05-2026 18:15 17,8 72 0 0 19 0 1012,2
73 San Diego 04-05-2026 18:00 19,7 66 0 0 95 0 1011,9
72 San Diego 04-05-2026 17:45 21,6 62 0 0 95 7 1012,2
71 San Diego 04-05-2026 17:30 22,9 58 0 0 122 12 1012,2
70 San Diego 04-05-2026 17:15 23,7 55 0 0,4 203 44 1012,1
69 San Diego 04-05-2026 17:00 24,1 54 0 0,9 202 69 1012,2
68 San Diego 04-05-2026 16:45 24,1 54 0 0,9 154 127 1011,9
67 San Diego 04-05-2026 16:30 24,2 53 0 0,4 106 142 1011,9
66 San Diego 04-05-2026 16:15 24,5 52 0 1,3 208 223 1012,2
65 San Diego 04-05-2026 16:00 24,7 53 0 1,8 169 258 1012,2
64 San Diego 04-05-2026 15:45 24,7 52 0 2,2 195 299 1012,2
63 San Diego 04-05-2026 15:30 24,9 52 0 1,8 181 338 1012,6
62 San Diego 04-05-2026 15:15 24,7 51 0 2,7 147 410 1012,6
61 San Diego 04-05-2026 15:00 24,9 51 0 1,8 171 411 1012,8
60 San Diego 04-05-2026 14:45 24,9 51 0 1,3 179 459 1012,9
59 San Diego 04-05-2026 14:30 24,8 50 0 0,9 134 552 1013,1
58 San Diego 04-05-2026 14:15 24,4 48 0 2,7 136 515 1013,2
57 San Diego 04-05-2026 14:00 24,1 49 0 0,9 139 408 1013,4
56 San Diego 04-05-2026 13:45 24,4 49 0 3,1 110 487 1013,7
55 San Diego 04-05-2026 13:30 24,1 50 0 0,4 147 513 1014
54 San Diego 04-05-2026 13:15 23,5 53 0 2,2 154 608 1014,2
53 San Diego 04-05-2026 13:00 23,5 54 0 1,8 150 519 1014,5
52 San Diego 04-05-2026 12:45 23,3 53 0 3,1 164 519 1014,6
51 San Diego 04-05-2026 12:30 22,6 49 0 0,9 60 615 1014,9
50 San Diego 04-05-2026 12:15 21,9 45 0 1,8 99 566 1015
49 San Diego 04-05-2026 12:00 21,1 45 0 0,9 46 496 1015,1
48 San Diego 04-05-2026 11:45 20,1 44 0 1,3 183 534 1015,4
47 San Diego 04-05-2026 11:30 19,1 47 0 0,4 88 448 1015,4
46 San Diego 04-05-2026 11:15 18,6 47 0 0 343 329 1015,7
45 San Diego 04-05-2026 11:00 17,1 50 0 0 280 577 1016
44 San Diego 04-05-2026 10:45 16,1 56 0 1,3 174 554 1016,1
43 San Diego 04-05-2026 10:30 14,5 63 0 0 326 353 1016,3
42 San Diego 04-05-2026 10:15 13,1 68 0 0,9 343 410 1016,2
41 San Diego 04-05-2026 10:00 11,7 69 0 0 354 369 1016,2
40 San Diego 04-05-2026 09:45 10,6 73 0 0,9 355 302 1016,2
39 San Diego 04-05-2026 09:30 9,2 81 0 0,4 294 230 1016,3
38 San Diego 04-05-2026 09:15 7,4 86 0 0 336 287 1016,1
37 San Diego 04-05-2026 09:00 5,7 91 0 0,9 347 250 1016,1
36 San Diego 04-05-2026 08:45 4,5 92 0 0 303 69 1016
35 San Diego 04-05-2026 08:30 3,7 91 0 0 268 35 1015,7
34 San Diego 04-05-2026 08:15 3,4 91 0 0 164 25 1015,8
33 San Diego 04-05-2026 08:00 3,3 91 0 0 164 18 1015,7
32 San Diego 04-05-2026 07:45 3,3 91 0 0 307 11 1015,7
31 San Diego 04-05-2026 07:30 3,3 90 0 0 307 5 1015,6
30 San Diego 04-05-2026 07:15 3,4 90 0 0 307 0 1015,5
29 San Diego 04-05-2026 07:00 3,7 89 0 0 307 0 1015,4
28 San Diego 04-05-2026 06:45 3,6 90 0 0 293 0 1015,3
27 San Diego 04-05-2026 06:30 3,5 90 0 0 286 0 1015,2
26 San Diego 04-05-2026 06:15 3,5 91 0 0 325 0 1015,2
25 San Diego 04-05-2026 06:00 3,3 91 0 0 297 0 1015
24 San Diego 04-05-2026 05:45 3,2 91 0 0 290 0 1015
23 San Diego 04-05-2026 05:30 3,3 90 0 0 339 0 1014,8
22 San Diego 04-05-2026 05:15 3,3 91 0 0 296 0 1014,9
21 San Diego 04-05-2026 05:00 3,2 90 0 0 297 0 1015
20 San Diego 04-05-2026 04:45 3,4 90 0 0 341 0 1015
19 San Diego 04-05-2026 04:30 3,5 90 0 0 341 0 1014,9
18 San Diego 04-05-2026 04:15 3,7 89 0 0 341 0 1014,9
17 San Diego 04-05-2026 04:00 3,9 89 0 0 341 0 1014,8
16 San Diego 04-05-2026 03:45 4,1 88 0 0 341 0 1015
15 San Diego 04-05-2026 03:30 4,5 88 0 0 339 0 1015,2
14 San Diego 04-05-2026 03:15 4,6 88 0 0 297 0 1015,3
13 San Diego 04-05-2026 03:00 4,5 88 0 0 297 0 1015,5
12 San Diego 04-05-2026 02:45 4,8 88 0 0,4 306 0 1015,6
11 San Diego 04-05-2026 02:30 4,6 89 0 0 274 0 1015,8
10 San Diego 04-05-2026 02:15 4,3 88 0 0 314 0 1015,8
9 San Diego 04-05-2026 02:00 4,4 88 0 0 314 0 1016
8 San Diego 04-05-2026 01:45 4,4 88 0 0 314 0 1015,9
7 San Diego 04-05-2026 01:30 4,7 88 0 0 315 0 1016
6 San Diego 04-05-2026 01:15 4,6 87 0 0 315 0 1016,2
5 San Diego 04-05-2026 01:00 4,8 87 0 0 315 0 1016,4
4 San Diego 04-05-2026 00:45 5,1 87 0 0 315 0 1016,6
3 San Diego 04-05-2026 00:30 5,6 87 0 0 320 0 1016,9
2 San Diego 04-05-2026 00:15 5,8 85 0 0 320 0 1016,9
1 San Diego 04-05-2026 00:00 6,2 84 0 0 320 0 1016,7